This is the latest recevied weather packets stored in our database for station/object AC0YE. If no packets are shown the sender has not sent any weather packets the latest 10 day(s).
| Time | Temp. | Humidity | Pressure | Rain* | Wind** | Luminosity | Snow |
|---|---|---|---|---|---|---|---|
| 1777364416 | 8.89° C | 84% | 1010.7 hPa | 0 mm | - | - | - |
| 1777364116 | 8.89° C | 84% | 1010.4 hPa | 0 mm | - | - | - |
| 1777361436 | 8.89° C | 84% | 1010.1 hPa | 0 mm | - | - | - |
| 1777359616 | 9.44° C | 84% | 1010 hPa | 0 mm | - | - | - |
| 1777358716 | 9.44° C | 83% | 1009.8 hPa | 0 mm | - | - | - |
| 1777358436 | 9.44° C | 83% | 1009.9 hPa | 0 mm | - | - | - |
| 1777356936 | 9.44° C | 83% | 1009.5 hPa | 0 mm | - | - | - |
| 1777356636 | 9.44° C | 83% | 1009.4 hPa | 0 mm | - | - | - |
| 1777352416 | 10.56° C | 83% | 1008.2 hPa | 0 mm | - | - | - |
| 1777351816 | 10.56° C | 82% | 1008 hPa | 0 mm | - | - | - |
| 1777351216 | 10.56° C | 81% | 1008 hPa | 0 mm | - | - | - |
| 1777350916 | 11.11° C | 80% | 1008 hPa | 0 mm | - | - | - |
| 1777350616 | 11.11° C | 81% | 1007.9 hPa | 0 mm | - | - | - |
| 1777349736 | 11.11° C | 83% | 1007.7 hPa | 0 mm | - | - | - |
| 1777347916 | 11.67° C | 83% | 1007.2 hPa | 0 mm | - | - | - |
| 1777344916 | 12.78° C | 82% | 1006.2 hPa | 0 mm | - | - | - |
| 1777340136 | 13.89° C | 85% | 1004 hPa | 0 mm | - | - | - |
| 1777339816 | 14.44° C | 85% | 1003.8 hPa | 0 mm | - | - | - |
| 1777338616 | 14.44° C | 85% | 1003.4 hPa | 0 mm | - | - | - |
| 1777337115 | 15° C | 86% | 1002.8 hPa | 0.25 mm | - | - | - |
| 1777336515 | 15° C | 85% | 1002.7 hPa | 0.25 mm | - | - | - |
| 1777331717 | 17.22° C | 91% | 1001.8 hPa | 3.05 mm | - | - | - |
| 1777331117 | 17.22° C | 90% | 1001.7 hPa | 3.05 mm | - | - | - |
| 1777330817 | 16.67° C | 89% | 1001.6 hPa | 3.05 mm | - | - | - |
| 1777330217 | 17.22° C | 86% | 1001.5 hPa | 1.02 mm | - | - | - |
* Rain latest hour (hover to see other rain measurements)
** Current wind speed in m/s (hover to see current wind gust speed)